Back to top

Riverton, WY weather

Riverton Regional Airport, Riverton, WY: 12/12/2019 23:53
Visibility10 statute mileslots of clouds
View 7-Day Forecast
Area Summary
Sky/CloudsSolid Overcast at 11000ft
Weather [last 24 hours]None
Pressure29.89 in.Hg (1012 hPa)
Dew Point21.9 °F (-5.6 °C)
Relative Humidity77.5 %
Temperature28 °F (-2.2 °C)red thermometer
Wind Chill20.7 °F (-6.25 °C)
Reading TimeMinimum to Maximum Temperature
6-hr ending 12/12@22:5319 °F to 28 °F (-7.2 °C to -2.2 °C)
6-hr ending 12/12@16:5326.1 °F to 33.1 °F (-3.3 °C to 0.6 °C)
6-hr ending 12/12@10:5315.1 °F to 28 °F (-9.4 °C to -2.2 °C)
6-hr ending 12/12@04:5319 °F to 28 °F (-7.2 °C to -2.2 °C)
24-hr ending 12/12@23:5315.1 °F to 33.1 °F (-9.4 °C to 0.6 °C)
Wind6.9 MPH (6 KT) green arrow pointing 225 degrees
Wind FromSouthwest (230 Degrees)
Twilight Begins07:03Sunshine Yesterday
Sunrise07:36N/A
Sunset16:41
Twilight Ends17:14
METARKRIW 130653Z AUTO 23006KT 10SM OVC110 M02/M06 A2989 RMK AO2 SLP147 T10221056 400061094
Tags: